sensor_id;sensor_type;location;lat;lon;timestamp;temperature;humidity
23591;DHT22;11973;52.098;7.582;2023-06-22T04:16:44;19.80;74.20
23591;DHT22;11973;52.098;7.582;2023-06-22T04:19:10;19.80;74.20
23591;DHT22;11973;52.098;7.582;2023-06-22T04:21:42;19.90;74.40
23591;DHT22;11973;52.098;7.582;2023-06-22T04:24:08;19.90;74.50
23591;DHT22;11973;52.098;7.582;2023-06-22T04:26:33;19.90;75.30
23591;DHT22;11973;52.098;7.582;2023-06-22T04:29:05;19.90;74.60
23591;DHT22;11973;52.098;7.582;2023-06-22T04:31:32;20.00;74.60
23591;DHT22;11973;52.098;7.582;2023-06-22T04:34:02;20.00;74.60
23591;DHT22;11973;52.098;7.582;2023-06-22T04:36:36;20.10;74.70
23591;DHT22;11973;52.098;7.582;2023-06-22T04:39:08;20.10;74.70
23591;DHT22;11973;52.098;7.582;2023-06-22T04:41:39;20.10;75.40
23591;DHT22;11973;52.098;7.582;2023-06-22T04:46:34;20.20;74.80
23591;DHT22;11973;52.098;7.582;2023-06-22T04:49:04;20.20;74.80
23591;DHT22;11973;52.098;7.582;2023-06-22T04:51:32;20.20;74.80
23591;DHT22;11973;52.098;7.582;2023-06-22T04:53:57;20.20;74.80
23591;DHT22;11973;52.098;7.582;2023-06-22T04:56:26;20.20;74.90
23591;DHT22;11973;52.098;7.582;2023-06-22T04:58:54;20.30;74.90
23591;DHT22;11973;52.098;7.582;2023-06-22T05:01:23;20.30;75.00
23591;DHT22;11973;52.098;7.582;2023-06-22T05:03:49;20.40;75.10
23591;DHT22;11973;52.098;7.582;2023-06-22T05:06:15;20.50;76.00
23591;DHT22;11973;52.098;7.582;2023-06-22T05:08:41;20.50;75.20
23591;DHT22;11973;52.098;7.582;2023-06-22T05:11:06;20.60;75.20
23591;DHT22;11973;52.098;7.582;2023-06-22T05:13:32;20.70;75.30
23591;DHT22;11973;52.098;7.582;2023-06-22T05:15:58;20.70;75.20
23591;DHT22;11973;52.098;7.582;2023-06-22T05:18:30;20.80;75.20
23591;DHT22;11973;52.098;7.582;2023-06-22T05:20:58;20.90;75.20
23591;DHT22;11973;52.098;7.582;2023-06-22T05:23:23;20.90;75.10
23591;DHT22;11973;52.098;7.582;2023-06-22T05:25:49;21.00;75.20
23591;DHT22;11973;52.098;7.582;2023-06-22T05:28:15;21.00;75.10
23591;DHT22;11973;52.098;7.582;2023-06-22T05:30:41;21.00;75.10
23591;DHT22;11973;52.098;7.582;2023-06-22T05:33:06;21.00;75.10
23591;DHT22;11973;52.098;7.582;2023-06-22T05:35:32;21.00;75.10
23591;DHT22;11973;52.098;7.582;2023-06-22T05:37:58;21.10;75.10
23591;DHT22;11973;52.098;7.582;2023-06-22T05:40:23;21.10;75.10
23591;DHT22;11973;52.098;7.582;2023-06-22T05:42:49;21.10;75.10
23591;DHT22;11973;52.098;7.582;2023-06-22T05:45:15;21.10;75.10
23591;DHT22;11973;52.098;7.582;2023-06-22T05:47:41;21.10;75.10
23591;DHT22;11973;52.098;7.582;2023-06-22T05:50:07;21.10;75.10
23591;DHT22;11973;52.098;7.582;2023-06-22T05:52:34;21.20;75.10
23591;DHT22;11973;52.098;7.582;2023-06-22T05:55:02;21.20;75.10
23591;DHT22;11973;52.098;7.582;2023-06-22T05:57:28;21.20;75.10
23591;DHT22;11973;52.098;7.582;2023-06-22T05:59:53;21.30;75.20
23591;DHT22;11973;52.098;7.582;2023-06-22T06:02:19;21.30;75.10
23591;DHT22;11973;52.098;7.582;2023-06-22T06:04:45;21.40;75.20
23591;DHT22;11973;52.098;7.582;2023-06-22T06:07:11;21.40;75.20
23591;DHT22;11973;52.098;7.582;2023-06-22T06:09:37;21.50;76.00
23591;DHT22;11973;52.098;7.582;2023-06-22T06:12:03;21.60;75.20
23591;DHT22;11973;52.098;7.582;2023-06-22T06:14:29;21.70;75.20
23591;DHT22;11973;52.098;7.582;2023-06-22T06:16:55;21.80;75.20
23591;DHT22;11973;52.098;7.582;2023-06-22T06:19:21;21.90;75.20
23591;DHT22;11973;52.098;7.582;2023-06-22T06:21:46;22.00;75.20
23591;DHT22;11973;52.098;7.582;2023-06-22T06:24:12;22.20;75.30
23591;DHT22;11973;52.098;7.582;2023-06-22T06:26:38;22.40;75.30
23591;DHT22;11973;52.098;7.582;2023-06-22T06:29:04;22.50;75.10
23591;DHT22;11973;52.098;7.582;2023-06-22T06:31:30;22.70;75.20
23591;DHT22;11973;52.098;7.582;2023-06-22T06:33:56;22.90;75.00
23591;DHT22;11973;52.098;7.582;2023-06-22T06:36:21;23.00;74.80
23591;DHT22;11973;52.098;7.582;2023-06-22T06:38:47;23.10;74.60
23591;DHT22;11973;52.098;7.582;2023-06-22T06:41:15;23.20;74.40
23591;DHT22;11973;52.098;7.582;2023-06-22T06:43:41;23.30;74.40
23591;DHT22;11973;52.098;7.582;2023-06-22T06:46:10;23.40;74.20
23591;DHT22;11973;52.098;7.582;2023-06-22T06:48:36;23.50;74.20
23591;DHT22;11973;52.098;7.582;2023-06-22T06:51:02;23.60;74.10
23591;DHT22;11973;52.098;7.582;2023-06-22T06:53:27;23.70;74.00
23591;DHT22;11973;52.098;7.582;2023-06-22T06:55:54;23.80;73.90
23591;DHT22;11973;52.098;7.582;2023-06-22T06:58:20;23.90;73.70
23591;DHT22;11973;52.098;7.582;2023-06-22T07:00:45;23.90;73.50
23591;DHT22;11973;52.098;7.582;2023-06-22T07:03:11;24.00;73.40
23591;DHT22;11973;52.098;7.582;2023-06-22T07:05:37;24.10;73.30
23591;DHT22;11973;52.098;7.582;2023-06-22T07:08:03;24.20;73.10
23591;DHT22;11973;52.098;7.582;2023-06-22T07:10:29;24.20;73.00
23591;DHT22;11973;52.098;7.582;2023-06-22T07:12:55;24.20;73.60
23591;DHT22;11973;52.098;7.582;2023-06-22T07:15:20;24.30;72.80
23591;DHT22;11973;52.098;7.582;2023-06-22T07:17:46;24.30;72.60
23591;DHT22;11973;52.098;7.582;2023-06-22T07:20:12;24.40;72.40
23591;DHT22;11973;52.098;7.582;2023-06-22T07:22:38;24.40;72.20
23591;DHT22;11973;52.098;7.582;2023-06-22T07:25:05;24.40;72.20
23591;DHT22;11973;52.098;7.582;2023-06-22T07:27:45;24.50;72.10
23591;DHT22;11973;52.098;7.582;2023-06-22T07:30:12;24.50;71.90
23591;DHT22;11973;52.098;7.582;2023-06-22T07:32:38;24.50;71.70
23591;DHT22;11973;52.098;7.582;2023-06-22T07:35:04;24.60;71.70
23591;DHT22;11973;52.098;7.582;2023-06-22T07:37:31;24.60;71.60
23591;DHT22;11973;52.098;7.582;2023-06-22T07:39:58;24.60;71.50
23591;DHT22;11973;52.098;7.582;2023-06-22T07:42:27;24.70;71.40
23591;DHT22;11973;52.098;7.582;2023-06-22T07:44:54;24.70;72.20
23591;DHT22;11973;52.098;7.582;2023-06-22T07:47:20;24.70;71.30
23591;DHT22;11973;52.098;7.582;2023-06-22T07:49:50;24.70;71.30
23591;DHT22;11973;52.098;7.582;2023-06-22T07:52:16;24.80;71.30
23591;DHT22;11973;52.098;7.582;2023-06-22T07:54:42;24.80;71.20
23591;DHT22;11973;52.098;7.582;2023-06-22T07:57:07;24.80;71.10
23591;DHT22;11973;52.098;7.582;2023-06-22T07:59:33;24.80;70.90
23591;DHT22;11973;52.098;7.582;2023-06-22T08:02:00;24.80;70.90
23591;DHT22;11973;52.098;7.582;2023-06-22T08:04:26;24.90;71.00
23591;DHT22;11973;52.098;7.582;2023-06-22T08:06:53;24.90;70.80
23591;DHT22;11973;52.098;7.582;2023-06-22T08:09:19;24.90;70.80
23591;DHT22;11973;52.098;7.582;2023-06-22T08:11:45;24.90;70.70
23591;DHT22;11973;52.098;7.582;2023-06-22T08:14:10;24.90;70.50
23591;DHT22;11973;52.098;7.582;2023-06-22T08:16:36;24.90;70.30
23591;DHT22;11973;52.098;7.582;2023-06-22T08:19:02;24.90;70.20
23591;DHT22;11973;52.098;7.582;2023-06-22T08:21:27;25.00;70.20
23591;DHT22;11973;52.098;7.582;2023-06-22T08:23:53;25.00;70.00
23591;DHT22;11973;52.098;7.582;2023-06-22T08:26:19;25.00;69.80
23591;DHT22;11973;52.098;7.582;2023-06-22T08:28:44;25.10;69.80
23591;DHT22;11973;52.098;7.582;2023-06-22T08:31:10;25.10;69.80
23591;DHT22;11973;52.098;7.582;2023-06-22T08:33:37;25.10;69.70
23591;DHT22;11973;52.098;7.582;2023-06-22T08:36:03;25.10;69.50
23591;DHT22;11973;52.098;7.582;2023-06-22T08:38:31;25.10;69.60
23591;DHT22;11973;52.098;7.582;2023-06-22T08:40:57;25.10;69.50
23591;DHT22;11973;52.098;7.582;2023-06-22T08:43:23;25.10;69.40
23591;DHT22;11973;52.098;7.582;2023-06-22T08:45:48;25.10;69.30
23591;DHT22;11973;52.098;7.582;2023-06-22T08:48:14;25.10;69.30
23591;DHT22;11973;52.098;7.582;2023-06-22T08:50:40;25.10;69.20
23591;DHT22;11973;52.098;7.582;2023-06-22T08:53:06;25.20;70.00
23591;DHT22;11973;52.098;7.582;2023-06-22T08:55:32;25.30;69.10
23591;DHT22;11973;52.098;7.582;2023-06-22T08:57:57;25.40;69.10
23591;DHT22;11973;52.098;7.582;2023-06-22T09:00:23;25.50;69.10
23591;DHT22;11973;52.098;7.582;2023-06-22T09:02:49;25.60;69.10
23591;DHT22;11973;52.098;7.582;2023-06-22T09:05:18;25.80;69.00
23591;DHT22;11973;52.098;7.582;2023-06-22T09:07:44;25.90;68.70
23591;DHT22;11973;52.098;7.582;2023-06-22T09:10:10;26.20;69.50
23591;DHT22;11973;52.098;7.582;2023-06-22T09:12:35;26.30;68.30
23591;DHT22;11973;52.098;7.582;2023-06-22T09:15:03;26.50;68.10
23591;DHT22;11973;52.098;7.582;2023-06-22T09:17:29;26.60;67.70
23591;DHT22;11973;52.098;7.582;2023-06-22T09:19:55;26.70;67.50
23591;DHT22;11973;52.098;7.582;2023-06-22T09:22:21;26.80;67.30
23591;DHT22;11973;52.098;7.582;2023-06-22T09:24:47;26.90;67.20
23591;DHT22;11973;52.098;7.582;2023-06-22T09:27:12;27.00;67.10
23591;DHT22;11973;52.098;7.582;2023-06-22T09:29:38;27.10;66.90
23591;DHT22;11973;52.098;7.582;2023-06-22T09:32:04;27.10;66.60
23591;DHT22;11973;52.098;7.582;2023-06-22T09:34:30;27.20;66.50
23591;DHT22;11973;52.098;7.582;2023-06-22T09:36:57;27.30;66.40
23591;DHT22;11973;52.098;7.582;2023-06-22T09:39:22;27.30;66.00
23591;DHT22;11973;52.098;7.582;2023-06-22T09:41:48;27.40;65.90
23591;DHT22;11973;52.098;7.582;2023-06-22T09:44:14;27.40;65.80
23591;DHT22;11973;52.098;7.582;2023-06-22T09:46:39;27.40;65.50
23591;DHT22;11973;52.098;7.582;2023-06-22T09:49:05;27.50;65.40
23591;DHT22;11973;52.098;7.582;2023-06-22T09:51:31;27.60;65.20
23591;DHT22;11973;52.098;7.582;2023-06-22T09:53:57;27.60;65.10
23591;DHT22;11973;52.098;7.582;2023-06-22T09:56:23;27.70;65.00
23591;DHT22;11973;52.098;7.582;2023-06-22T09:58:49;27.70;64.80
23591;DHT22;11973;52.098;7.582;2023-06-22T10:01:18;27.80;64.70
23591;DHT22;11973;52.098;7.582;2023-06-22T10:03:44;27.90;64.60
23591;DHT22;11973;52.098;7.582;2023-06-22T10:06:10;27.90;64.40
23591;DHT22;11973;52.098;7.582;2023-06-22T10:08:35;28.00;64.40
23591;DHT22;11973;52.098;7.582;2023-06-22T10:11:03;28.10;64.20
23591;DHT22;11973;52.098;7.582;2023-06-22T10:13:29;28.20;64.10
23591;DHT22;11973;52.098;7.582;2023-06-22T10:15:54;28.20;63.80
23591;DHT22;11973;52.098;7.582;2023-06-22T10:18:20;28.30;63.80
23591;DHT22;11973;52.098;7.582;2023-06-22T10:20:49;28.30;63.40
23591;DHT22;11973;52.098;7.582;2023-06-22T10:23:19;28.40;63.30
23591;DHT22;11973;52.098;7.582;2023-06-22T10:25:45;28.40;63.20
23591;DHT22;11973;52.098;7.582;2023-06-22T10:28:11;28.40;63.10
23591;DHT22;11973;52.098;7.582;2023-06-22T10:30:41;28.40;62.90
23591;DHT22;11973;52.098;7.582;2023-06-22T10:33:11;28.30;62.70
23591;DHT22;11973;52.098;7.582;2023-06-22T10:35:37;28.20;62.60
23591;DHT22;11973;52.098;7.582;2023-06-22T10:38:03;28.20;62.70
23591;DHT22;11973;52.098;7.582;2023-06-22T10:40:29;28.10;62.50
23591;DHT22;11973;52.098;7.582;2023-06-22T10:42:55;28.00;62.50
23591;DHT22;11973;52.098;7.582;2023-06-22T10:45:21;28.00;62.60
23591;DHT22;11973;52.098;7.582;2023-06-22T10:47:47;27.90;62.50
23591;DHT22;11973;52.098;7.582;2023-06-22T10:50:13;27.90;62.40
23591;DHT22;11973;52.098;7.582;2023-06-22T10:52:39;27.80;62.40
23591;DHT22;11973;52.098;7.582;2023-06-22T10:55:05;27.80;62.40
23591;DHT22;11973;52.098;7.582;2023-06-22T10:57:31;27.80;62.30
23591;DHT22;11973;52.098;7.582;2023-06-22T10:59:57;27.70;62.20
23591;DHT22;11973;52.098;7.582;2023-06-22T11:02:23;27.70;62.20
23591;DHT22;11973;52.098;7.582;2023-06-22T11:04:49;27.70;62.30
23591;DHT22;11973;52.098;7.582;2023-06-22T11:07:16;27.70;62.10
23591;DHT22;11973;52.098;7.582;2023-06-22T11:09:43;27.70;62.00
23591;DHT22;11973;52.098;7.582;2023-06-22T11:12:09;27.60;62.10
23591;DHT22;11973;52.098;7.582;2023-06-22T11:14:35;27.60;62.20
23591;DHT22;11973;52.098;7.582;2023-06-22T11:17:00;27.50;62.20
23591;DHT22;11973;52.098;7.582;2023-06-22T11:19:26;27.50;62.30
23591;DHT22;11973;52.098;7.582;2023-06-22T11:21:52;27.50;62.30
23591;DHT22;11973;52.098;7.582;2023-06-22T11:24:18;27.50;62.40
23591;DHT22;11973;52.098;7.582;2023-06-22T11:26:44;27.60;62.40
23591;DHT22;11973;52.098;7.582;2023-06-22T11:29:09;27.60;62.30
23591;DHT22;11973;52.098;7.582;2023-06-22T11:31:36;27.60;62.20
23591;DHT22;11973;52.098;7.582;2023-06-22T11:34:01;27.80;62.40
23591;DHT22;11973;52.098;7.582;2023-06-22T11:36:28;27.90;62.30
23591;DHT22;11973;52.098;7.582;2023-06-22T11:38:54;28.10;62.10
23591;DHT22;11973;52.098;7.582;2023-06-22T11:41:20;28.20;62.00
23591;DHT22;11973;52.098;7.582;2023-06-22T11:43:46;28.40;62.00
23591;DHT22;11973;52.098;7.582;2023-06-22T11:46:12;28.70;62.00
23591;DHT22;11973;52.098;7.582;2023-06-22T11:48:37;28.90;61.60
23591;DHT22;11973;52.098;7.582;2023-06-22T11:51:03;29.20;61.20
23591;DHT22;11973;52.098;7.582;2023-06-22T11:53:29;29.40;60.90
23591;DHT22;11973;52.098;7.582;2023-06-22T11:55:55;29.50;60.40
23591;DHT22;11973;52.098;7.582;2023-06-22T11:58:22;29.60;60.00
23591;DHT22;11973;52.098;7.582;2023-06-22T12:00:48;29.60;59.90
23591;DHT22;11973;52.098;7.582;2023-06-22T12:03:14;29.50;59.70
23591;DHT22;11973;52.098;7.582;2023-06-22T12:05:43;29.40;60.50
23591;DHT22;11973;52.098;7.582;2023-06-22T12:08:09;29.30;59.50
23591;DHT22;11973;52.098;7.582;2023-06-22T12:10:34;29.20;59.40
23591;DHT22;11973;52.098;7.582;2023-06-22T12:13:00;29.10;59.50
23591;DHT22;11973;52.098;7.582;2023-06-22T12:15:27;29.00;59.40
23591;DHT22;11973;52.098;7.582;2023-06-22T12:17:53;28.80;59.50
23591;DHT22;11973;52.098;7.582;2023-06-22T12:20:18;28.80;59.50
23591;DHT22;11973;52.098;7.582;2023-06-22T12:22:45;28.70;59.40
23591;DHT22;11973;52.098;7.582;2023-06-22T12:25:11;28.60;59.50
23591;DHT22;11973;52.098;7.582;2023-06-22T12:27:37;28.50;59.60
23591;DHT22;11973;52.098;7.582;2023-06-22T12:30:03;28.50;59.70
23591;DHT22;11973;52.098;7.582;2023-06-22T12:32:29;28.40;59.60
23591;DHT22;11973;52.098;7.582;2023-06-22T12:34:56;28.40;59.70
23591;DHT22;11973;52.098;7.582;2023-06-22T12:37:22;28.30;59.70
23591;DHT22;11973;52.098;7.582;2023-06-22T12:39:48;28.20;59.70
23591;DHT22;11973;52.098;7.582;2023-06-22T12:42:15;28.10;59.80
23591;DHT22;11973;52.098;7.582;2023-06-22T12:44:41;28.00;59.80
23591;DHT22;11973;52.098;7.582;2023-06-22T12:47:07;27.90;59.80
23591;DHT22;11973;52.098;7.582;2023-06-22T12:49:36;27.80;59.90
23591;DHT22;11973;52.098;7.582;2023-06-22T12:52:03;27.70;60.10
23591;DHT22;11973;52.098;7.582;2023-06-22T12:54:29;27.60;60.20
23591;DHT22;11973;52.098;7.582;2023-06-22T12:56:55;27.40;60.40
23591;DHT22;11973;52.098;7.582;2023-06-22T12:59:21;27.30;60.60
23591;DHT22;11973;52.098;7.582;2023-06-22T13:01:47;27.20;60.90
23591;DHT22;11973;52.098;7.582;2023-06-22T13:04:13;27.10;61.10
23591;DHT22;11973;52.098;7.582;2023-06-22T13:06:43;27.00;61.30
23591;DHT22;11973;52.098;7.582;2023-06-22T13:09:10;26.90;61.60
23591;DHT22;11973;52.098;7.582;2023-06-22T13:11:35;26.70;62.60
23591;DHT22;11973;52.098;7.582;2023-06-22T13:14:01;26.60;62.10
23591;DHT22;11973;52.098;7.582;2023-06-22T13:16:27;26.50;62.60
23591;DHT22;11973;52.098;7.582;2023-06-22T13:18:53;26.50;63.10
23591;DHT22;11973;52.098;7.582;2023-06-22T13:21:18;26.30;64.30
23591;DHT22;11973;52.098;7.582;2023-06-22T13:23:44;26.20;64.00
23591;DHT22;11973;52.098;7.582;2023-06-22T13:26:10;26.20;64.50
23591;DHT22;11973;52.098;7.582;2023-06-22T13:28:35;26.10;64.90
23591;DHT22;11973;52.098;7.582;2023-06-22T13:31:01;25.90;66.00
23591;DHT22;11973;52.098;7.582;2023-06-22T13:33:27;25.90;65.90
23591;DHT22;11973;52.098;7.582;2023-06-22T13:35:52;25.80;66.30
23591;DHT22;11973;52.098;7.582;2023-06-22T13:38:18;25.70;66.90
23591;DHT22;11973;52.098;7.582;2023-06-22T13:40:44;25.70;67.40
23591;DHT22;11973;52.098;7.582;2023-06-22T13:43:10;25.60;68.00
23591;DHT22;11973;52.098;7.582;2023-06-22T13:45:35;25.60;68.60
23591;DHT22;11973;52.098;7.582;2023-06-22T13:48:01;25.60;69.00
23591;DHT22;11973;52.098;7.582;2023-06-22T13:50:28;25.70;69.60
23591;DHT22;11973;52.098;7.582;2023-06-22T13:52:55;25.80;70.20
23591;DHT22;11973;52.098;7.582;2023-06-22T13:55:22;26.00;70.50
23591;DHT22;11973;52.098;7.582;2023-06-22T13:57:49;26.20;70.70
23591;DHT22;11973;52.098;7.582;2023-06-22T14:00:15;26.40;70.80
23591;DHT22;11973;52.098;7.582;2023-06-22T14:02:42;26.60;70.90
23591;DHT22;11973;52.098;7.582;2023-06-22T14:05:08;26.70;71.00
23591;DHT22;11973;52.098;7.582;2023-06-22T14:07:34;27.00;71.20
23591;DHT22;11973;52.098;7.582;2023-06-22T14:10:00;27.20;71.10
23591;DHT22;11973;52.098;7.582;2023-06-22T14:12:26;27.50;71.00
23591;DHT22;11973;52.098;7.582;2023-06-22T14:14:52;27.60;70.80
23591;DHT22;11973;52.098;7.582;2023-06-22T14:17:18;27.80;70.50
23591;DHT22;11973;52.098;7.582;2023-06-22T14:19:49;27.80;70.30
23591;DHT22;11973;52.098;7.582;2023-06-22T14:22:17;27.80;70.10
23591;DHT22;11973;52.098;7.582;2023-06-22T14:24:43;27.80;70.20
23591;DHT22;11973;52.098;7.582;2023-06-22T14:27:09;27.70;70.30
23591;DHT22;11973;52.098;7.582;2023-06-22T14:29:35;27.60;71.20
23591;DHT22;11973;52.098;7.582;2023-06-22T14:32:01;27.60;70.70
23591;DHT22;11973;52.098;7.582;2023-06-22T14:34:26;27.60;71.10
23591;DHT22;11973;52.098;7.582;2023-06-22T14:36:52;27.70;71.80
23591;DHT22;11973;52.098;7.582;2023-06-22T14:39:18;27.80;71.00
23591;DHT22;11973;52.098;7.582;2023-06-22T14:41:43;27.70;70.80
23591;DHT22;11973;52.098;7.582;2023-06-22T14:44:09;27.70;70.80
23591;DHT22;11973;52.098;7.582;2023-06-22T14:46:35;27.60;71.00
23591;DHT22;11973;52.098;7.582;2023-06-22T14:49:00;27.50;71.20
23591;DHT22;11973;52.098;7.582;2023-06-22T14:51:26;27.50;71.50
23591;DHT22;11973;52.098;7.582;2023-06-22T14:53:52;27.50;71.50
23591;DHT22;11973;52.098;7.582;2023-06-22T14:56:18;27.50;71.60
23591;DHT22;11973;52.098;7.582;2023-06-22T14:58:44;27.50;71.70
23591;DHT22;11973;52.098;7.582;2023-06-22T15:01:13;27.40;71.60
23591;DHT22;11973;52.098;7.582;2023-06-22T15:03:39;27.50;72.00
23591;DHT22;11973;52.098;7.582;2023-06-22T15:06:05;27.70;72.40
23591;DHT22;11973;52.098;7.582;2023-06-22T15:08:31;27.90;72.00
23591;DHT22;11973;52.098;7.582;2023-06-22T15:11:00;28.10;71.70
23591;DHT22;11973;52.098;7.582;2023-06-22T15:13:30;28.00;72.00
23591;DHT22;11973;52.098;7.582;2023-06-22T15:15:59;27.90;71.10
23591;DHT22;11973;52.098;7.582;2023-06-22T15:18:25;27.70;71.10
23591;DHT22;11973;52.098;7.582;2023-06-22T15:20:52;27.60;71.30
23591;DHT22;11973;52.098;7.582;2023-06-22T15:23:18;27.40;71.30
23591;DHT22;11973;52.098;7.582;2023-06-22T15:25:44;27.20;71.20
23591;DHT22;11973;52.098;7.582;2023-06-22T15:28:10;27.10;71.40
23591;DHT22;11973;52.098;7.582;2023-06-22T15:30:36;26.90;72.10
23591;DHT22;11973;52.098;7.582;2023-06-22T15:33:01;26.70;71.50
23591;DHT22;11973;52.098;7.582;2023-06-22T15:35:28;26.50;71.70
23591;DHT22;11973;52.098;7.582;2023-06-22T15:37:53;26.30;71.90
23591;DHT22;11973;52.098;7.582;2023-06-22T15:40:19;26.20;72.10
23591;DHT22;11973;52.098;7.582;2023-06-22T15:42:45;26.00;72.30
23591;DHT22;11973;52.098;7.582;2023-06-22T15:45:13;25.80;72.50
23591;DHT22;11973;52.098;7.582;2023-06-22T15:47:38;25.70;72.80
23591;DHT22;11973;52.098;7.582;2023-06-22T15:50:04;25.70;73.10
23591;DHT22;11973;52.098;7.582;2023-06-22T15:52:30;25.60;73.20
23591;DHT22;11973;52.098;7.582;2023-06-22T15:54:56;25.50;73.30
23591;DHT22;11973;52.098;7.582;2023-06-22T15:57:27;25.40;73.30
23591;DHT22;11973;52.098;7.582;2023-06-22T15:59:53;25.40;73.50
23591;DHT22;11973;52.098;7.582;2023-06-22T16:02:19;25.30;73.60
23591;DHT22;11973;52.098;7.582;2023-06-22T16:04:45;25.20;73.70
23591;DHT22;11973;52.098;7.582;2023-06-22T16:07:12;25.20;74.00
23591;DHT22;11973;52.098;7.582;2023-06-22T16:09:38;25.20;74.20
23591;DHT22;11973;52.098;7.582;2023-06-22T16:12:05;25.20;74.30
23591;DHT22;11973;52.098;7.582;2023-06-22T16:14:31;25.10;74.30
23591;DHT22;11973;52.098;7.582;2023-06-22T16:16:57;25.10;74.50
23591;DHT22;11973;52.098;7.582;2023-06-22T16:19:22;25.10;75.30
23591;DHT22;11973;52.098;7.582;2023-06-22T16:21:48;25.10;74.60
23591;DHT22;11973;52.098;7.582;2023-06-22T16:24:14;25.00;74.70
23591;DHT22;11973;52.098;7.582;2023-06-22T16:26:41;24.90;74.60
23591;DHT22;11973;52.098;7.582;2023-06-22T16:29:08;24.80;74.70
23591;DHT22;11973;52.098;7.582;2023-06-22T16:31:34;24.70;74.90
23591;DHT22;11973;52.098;7.582;2023-06-22T16:34:00;24.60;74.90
23591;DHT22;11973;52.098;7.582;2023-06-22T16:36:25;24.50;75.10
23591;DHT22;11973;52.098;7.582;2023-06-22T16:38:51;24.30;75.10
23591;DHT22;11973;52.098;7.582;2023-06-22T16:41:17;24.30;75.50
23591;DHT22;11973;52.098;7.582;2023-06-22T16:43:43;24.20;75.60
23591;DHT22;11973;52.098;7.582;2023-06-22T16:46:09;24.10;75.70
23591;DHT22;11973;52.098;7.582;2023-06-22T16:48:38;24.00;75.90
23591;DHT22;11973;52.098;7.582;2023-06-22T16:51:03;23.90;76.10
23591;DHT22;11973;52.098;7.582;2023-06-22T16:53:30;23.80;76.20
23591;DHT22;11973;52.098;7.582;2023-06-22T16:55:57;23.80;76.40
23591;DHT22;11973;52.098;7.582;2023-06-22T16:58:23;23.70;76.60
23591;DHT22;11973;52.098;7.582;2023-06-22T17:00:53;23.60;77.50
23591;DHT22;11973;52.098;7.582;2023-06-22T17:03:29;23.50;76.90
23591;DHT22;11973;52.098;7.582;2023-06-22T17:05:59;23.40;77.10
23591;DHT22;11973;52.098;7.582;2023-06-22T17:08:32;23.40;77.20
23591;DHT22;11973;52.098;7.582;2023-06-22T17:11:00;23.30;77.50
23591;DHT22;11973;52.098;7.582;2023-06-22T17:13:26;23.20;77.50
23591;DHT22;11973;52.098;7.582;2023-06-22T17:15:55;23.10;77.80
23591;DHT22;11973;52.098;7.582;2023-06-22T17:18:25;23.00;79.00
23591;DHT22;11973;52.098;7.582;2023-06-22T17:20:52;23.00;78.60
23591;DHT22;11973;52.098;7.582;2023-06-22T17:23:18;22.90;78.70
23591;DHT22;11973;52.098;7.582;2023-06-22T17:25:46;22.90;79.00
23591;DHT22;11973;52.098;7.582;2023-06-22T17:28:12;22.90;79.30
23591;DHT22;11973;52.098;7.582;2023-06-22T17:30:38;22.80;79.50
23591;DHT22;11973;52.098;7.582;2023-06-22T17:33:08;22.70;79.60
23591;DHT22;11973;52.098;7.582;2023-06-22T17:35:48;22.70;80.00
23591;DHT22;11973;52.098;7.582;2023-06-22T17:38:21;22.60;80.10
23591;DHT22;11973;52.098;7.582;2023-06-22T17:40:48;22.50;80.20
23591;DHT22;11973;52.098;7.582;2023-06-22T17:43:14;22.50;80.40
23591;DHT22;11973;52.098;7.582;2023-06-22T17:45:44;22.40;80.60
23591;DHT22;11973;52.098;7.582;2023-06-22T17:48:13;22.40;80.80
23591;DHT22;11973;52.098;7.582;2023-06-22T17:50:41;22.30;81.00
23591;DHT22;11973;52.098;7.582;2023-06-22T17:53:11;22.30;81.40
23591;DHT22;11973;52.098;7.582;2023-06-22T17:55:37;22.20;81.50
23591;DHT22;11973;52.098;7.582;2023-06-22T17:58:04;22.20;81.70
23591;DHT22;11973;52.098;7.582;2023-06-22T18:00:30;22.10;81.90
23591;DHT22;11973;52.098;7.582;2023-06-22T18:02:57;22.10;82.10
23591;DHT22;11973;52.098;7.582;2023-06-22T18:05:31;22.10;83.10
23591;DHT22;11973;52.098;7.582;2023-06-22T18:07:58;22.00;82.60
23591;DHT22;11973;52.098;7.582;2023-06-22T18:10:27;22.00;82.80
23591;DHT22;11973;52.098;7.582;2023-06-22T18:12:56;21.90;83.10
23591;DHT22;11973;52.098;7.582;2023-06-22T18:15:23;21.90;83.30
23591;DHT22;11973;52.098;7.582;2023-06-22T18:17:51;21.80;83.40
23591;DHT22;11973;52.098;7.582;2023-06-22T18:20:17;21.80;83.60
23591;DHT22;11973;52.098;7.582;2023-06-22T18:22:46;21.80;83.80
23591;DHT22;11973;52.098;7.582;2023-06-22T18:25:13;21.80;84.00
23591;DHT22;11973;52.098;7.582;2023-06-22T18:27:41;21.70;84.30
23591;DHT22;11973;52.098;7.582;2023-06-22T18:30:07;21.70;84.70
23591;DHT22;11973;52.098;7.582;2023-06-22T18:32:34;21.70;85.10
23591;DHT22;11973;52.098;7.582;2023-06-22T18:35:00;21.60;85.50
23591;DHT22;11973;52.098;7.582;2023-06-22T18:37:30;21.60;86.00
23591;DHT22;11973;52.098;7.582;2023-06-22T18:39:57;21.60;86.50
23591;DHT22;11973;52.098;7.582;2023-06-22T18:42:23;21.50;86.80
23591;DHT22;11973;52.098;7.582;2023-06-22T18:44:53;21.50;87.30
23591;DHT22;11973;52.098;7.582;2023-06-22T18:47:29;21.50;87.90
23591;DHT22;11973;52.098;7.582;2023-06-22T18:50:07;21.40;88.20
23591;DHT22;11973;52.098;7.582;2023-06-22T18:52:33;21.40;88.70
23591;DHT22;11973;52.098;7.582;2023-06-22T18:55:04;21.40;89.00
23591;DHT22;11973;52.098;7.582;2023-06-22T18:57:33;21.30;89.40
23591;DHT22;11973;52.098;7.582;2023-06-22T19:00:02;21.40;90.00
23591;DHT22;11973;52.098;7.582;2023-06-22T19:13:27;21.30;90.50
23591;DHT22;11973;52.098;7.582;2023-06-22T19:16:15;21.30;90.70
23591;DHT22;11973;52.098;7.582;2023-06-22T19:18:40;21.20;90.70
23591;DHT22;11973;52.098;7.582;2023-06-22T19:21:11;21.30;90.90
23591;DHT22;11973;52.098;7.582;2023-06-22T19:23:41;21.20;91.00
23591;DHT22;11973;52.098;7.582;2023-06-22T19:26:17;21.20;91.10
23591;DHT22;11973;52.098;7.582;2023-06-22T19:28:56;21.20;91.50
23591;DHT22;11973;52.098;7.582;2023-06-22T19:31:25;21.20;91.30
23591;DHT22;11973;52.098;7.582;2023-06-22T19:33:54;21.20;91.40
23591;DHT22;11973;52.098;7.582;2023-06-22T19:36:24;21.20;91.50
23591;DHT22;11973;52.098;7.582;2023-06-22T19:38:50;21.20;91.60
23591;DHT22;11973;52.098;7.582;2023-06-22T19:41:16;21.20;91.70
23591;DHT22;11973;52.098;7.582;2023-06-22T19:43:45;21.20;91.80
23591;DHT22;11973;52.098;7.582;2023-06-22T19:46:10;21.20;91.90
23591;DHT22;11973;52.098;7.582;2023-06-22T19:48:39;21.20;92.00
23591;DHT22;11973;52.098;7.582;2023-06-22T19:51:06;21.10;92.10
23591;DHT22;11973;52.098;7.582;2023-06-22T19:53:32;21.10;92.10
23591;DHT22;11973;52.098;7.582;2023-06-22T19:55:58;21.10;92.20